Time;durP1;ratioP1;P1;durP2;ratioP2;P2;SDS_P1;SDS_P2;PMS_P1;PMS_P2;Temp;Humidity;BMP_temperature;BMP_pressure;BME280_temperature;BME280_humidity;BME280_pressure;Samples;Min_cycle;Max_cycle;Signal;HPM_P1;HPM_P2
2023/04/25 00:04:13;;;;;;;;;;;17.40;65.00;;;;;;10289419;28;93485;-68
2023/04/25 00:09:16;;;;;;;;;;;17.40;65.00;;;;;;10270502;28;95940;-68
2023/04/25 00:14:17;;;;;;;;;;;17.40;65.00;;;;;;10273491;28;93318;-68
2023/04/25 00:19:19;;;;;;;;;;;17.40;64.80;;;;;;10289827;28;93450;-68
2023/04/25 00:24:21;;;;;;;;;;;17.40;64.80;;;;;;10290290;28;93852;-68
2023/04/25 00:29:23;;;;;;;;;;;17.40;64.80;;;;;;10273091;28;93931;-69
2023/04/25 00:34:24;;;;;;;;;;;17.40;64.80;;;;;;10270376;28;94451;-68
2023/04/25 00:39:26;;;;;;;;;;;17.40;64.70;;;;;;10289910;28;93261;-68
2023/04/25 00:44:29;;;;;;;;;;;17.30;65.60;;;;;;10289831;28;93370;-68
2023/04/25 00:49:31;;;;;;;;;;;17.30;64.60;;;;;;10255989;28;93255;-68
2023/04/25 00:54:33;;;;;;;;;;;17.30;64.50;;;;;;10288725;28;93537;-68
2023/04/25 00:59:36;;;;;;;;;;;17.30;64.40;;;;;;10286491;28;95675;-68
2023/04/25 01:04:37;;;;;;;;;;;17.30;64.40;;;;;;10268996;28;93509;-68
2023/04/25 01:09:39;;;;;;;;;;;17.30;64.40;;;;;;10288112;28;94421;-68
2023/04/25 01:14:41;;;;;;;;;;;17.30;64.10;;;;;;10288897;28;94441;-68
2023/04/25 01:19:43;;;;;;;;;;;17.30;64.20;;;;;;10288738;28;93274;-68
2023/04/25 01:24:45;;;;;;;;;;;17.30;64.20;;;;;;10285712;28;93587;-68
2023/04/25 01:29:47;;;;;;;;;;;17.30;64.10;;;;;;10287634;28;95212;-68
2023/04/25 01:34:48;;;;;;;;;;;17.30;64.10;;;;;;10269785;28;92850;-68
2023/04/25 01:39:50;;;;;;;;;;;17.30;64.00;;;;;;10288059;28;93309;-68
2023/04/25 01:44:52;;;;;;;;;;;17.30;63.90;;;;;;10252695;28;93572;-68
2023/04/25 01:49:55;;;;;;;;;;;17.30;63.80;;;;;;10284603;28;96902;-68
2023/04/25 01:54:57;;;;;;;;;;;17.30;63.90;;;;;;10268694;28;94540;-68
2023/04/25 02:00:00;;;;;;;;;;;17.30;63.80;;;;;;10270587;28;94797;-68
2023/04/25 02:05:02;;;;;;;;;;;17.30;63.70;;;;;;10268946;28;94185;-68
2023/04/25 02:10:04;;;;;;;;;;;17.30;63.60;;;;;;10287675;28;93854;-68
2023/04/25 02:15:06;;;;;;;;;;;17.30;63.60;;;;;;10286998;28;93687;-68
2023/04/25 02:20:08;;;;;;;;;;;17.20;63.50;;;;;;10287186;28;93646;-68
2023/04/25 02:25:11;;;;;;;;;;;17.30;63.60;;;;;;10287515;28;93285;-68
2023/04/25 02:30:13;;;;;;;;;;;17.20;63.50;;;;;;10268437;28;94110;-68
2023/04/25 02:35:15;;;;;;;;;;;17.20;63.50;;;;;;10286189;28;94756;-68
2023/04/25 02:40:17;;;;;;;;;;;17.20;63.50;;;;;;10284104;28;95919;-68
2023/04/25 02:45:19;;;;;;;;;;;17.20;63.40;;;;;;10283674;28;93770;-68
2023/04/25 02:50:20;;;;;;;;;;;17.20;63.40;;;;;;10268110;28;94604;-68
2023/04/25 02:55:22;;;;;;;;;;;17.20;63.40;;;;;;10285693;28;93130;-68
2023/04/25 03:00:28;;;;;;;;;;;17.20;63.40;;;;;;10275006;28;93844;-69
2023/04/25 03:05:30;;;;;;;;;;;17.10;63.20;;;;;;10292423;28;94572;-69
2023/04/25 03:10:32;;;;;;;;;;;17.10;63.20;;;;;;10274568;28;94601;-68
2023/04/25 03:15:35;;;;;;;;;;;17.10;63.10;;;;;;10293861;28;92491;-69
2023/04/25 03:20:37;;;;;;;;;;;17.10;64.20;;;;;;10290266;28;94068;-68
2023/04/25 03:25:38;;;;;;;;;;;17.10;63.10;;;;;;10291718;28;93434;-68
2023/04/25 03:30:40;;;;;;;;;;;17.10;63.10;;;;;;10289293;28;95741;-68
2023/04/25 03:35:42;;;;;;;;;;;17.10;63.00;;;;;;10292043;28;94269;-68
2023/04/25 03:40:44;;;;;;;;;;;17.10;63.00;;;;;;10292080;28;94437;-68
2023/04/25 03:45:45;;;;;;;;;;;17.00;62.90;;;;;;10290799;28;93516;-68
2023/04/25 05:03:05;;;;;;;;;;;17.00;62.70;;;;;;10184067;28;93996;-66
2023/04/25 05:08:07;;;;;;;;;;;17.10;62.60;;;;;;10191169;28;93555;-67
2023/04/25 05:13:08;;;;;;;;;;;17.10;62.50;;;;;;10209690;28;92691;-67
2023/04/25 05:18:10;;;;;;;;;;;17.20;62.40;;;;;;10189760;28;93189;-67
2023/04/25 05:23:12;;;;;;;;;;;17.20;62.30;;;;;;10207173;28;94657;-67
2023/04/25 05:28:13;;;;;;;;;;;17.20;62.10;;;;;;10206113;28;96810;-67
2023/04/25 05:33:15;;;;;;;;;;;17.20;62.70;;;;;;10208573;28;95900;-60
2023/04/25 05:38:17;;;;;;;;;;;17.20;65.30;;;;;;10207265;28;93495;-68
2023/04/25 05:43:19;;;;;;;;;;;17.30;64.80;;;;;;10207660;28;94704;-68
2023/04/25 05:48:21;;;;;;;;;;;17.40;65.10;;;;;;10215953;28;94238;-67
2023/04/25 05:53:23;;;;;;;;;;;17.40;65.00;;;;;;10247778;28;94105;-68
2023/04/25 05:58:24;;;;;;;;;;;17.40;64.90;;;;;;10247913;28;93587;-68
2023/04/25 06:03:26;;;;;;;;;;;17.30;64.10;;;;;;10247173;28;92958;-68
2023/04/25 06:08:28;;;;;;;;;;;17.30;64.00;;;;;;10247870;28;93348;-68
2023/04/25 06:13:30;;;;;;;;;;;17.30;63.70;;;;;;10230534;28;94148;-68
2023/04/25 06:18:32;;;;;;;;;;;17.20;63.70;;;;;;10244816;28;96299;-68
2023/04/25 06:23:34;;;;;;;;;;;17.20;63.60;;;;;;10228804;28;94394;-68
2023/04/25 06:28:36;;;;;;;;;;;17.20;63.50;;;;;;10246421;28;92564;-68
2023/04/25 06:33:37;;;;;;;;;;;17.10;63.20;;;;;;10252057;28;94035;-66
2023/04/25 06:38:39;;;;;;;;;;;17.10;63.60;;;;;;10240876;28;94637;-71
2023/04/25 06:43:41;;;;;;;;;;;17.20;65.60;;;;;;10252550;28;93942;-72
2023/04/25 06:48:42;;;;;;;;;;;17.20;63.30;;;;;;10253640;28;94043;-72
2023/04/25 06:53:44;;;;;;;;;;;17.20;62.50;;;;;;10253755;28;93375;-67
2023/04/25 06:58:46;;;;;;;;;;;17.10;62.20;;;;;;10252926;28;94456;-63
2023/04/25 07:03:47;;;;;;;;;;;17.10;64.60;;;;;;10253509;28;93530;-63
2023/04/25 07:08:49;;;;;;;;;;;17.10;65.20;;;;;;10249414;28;95960;-66
2023/04/25 07:13:51;;;;;;;;;;;17.10;64.30;;;;;;10252483;28;93651;-66
2023/04/25 07:18:53;;;;;;;;;;;17.10;64.20;;;;;;10251872;28;94312;-68
2023/04/25 07:23:55;;;;;;;;;;;17.10;64.20;;;;;;10251458;28;94495;-68
2023/04/25 07:28:57;;;;;;;;;;;17.00;64.50;;;;;;10251437;28;94782;-67
2023/04/25 07:33:58;;;;;;;;;;;17.00;64.40;;;;;;10251143;28;92996;-68
2023/04/25 07:39:03;;;;;;;;;;;17.00;64.20;;;;;;10252053;28;93864;-68
2023/04/25 07:44:04;;;;;;;;;;;17.00;64.00;;;;;;10250979;28;93000;-67
2023/04/25 07:49:06;;;;;;;;;;;17.00;63.70;;;;;;10250764;28;93277;-68
2023/04/25 07:54:08;;;;;;;;;;;17.00;63.50;;;;;;10250528;28;93551;-68
2023/04/25 07:59:10;;;;;;;;;;;17.00;63.60;;;;;;10248391;28;96278;-68
2023/04/25 08:04:12;;;;;;;;;;;17.00;63.70;;;;;;10250800;28;93225;-68
2023/04/25 08:09:15;;;;;;;;;;;17.00;63.70;;;;;;10249532;28;93713;-68
2023/04/25 08:14:17;;;;;;;;;;;17.00;63.70;;;;;;10250461;28;93571;-68
2023/04/25 08:19:19;;;;;;;;;;;16.90;63.50;;;;;;10250859;28;92767;-66
2023/04/25 08:24:21;;;;;;;;;;;16.90;63.50;;;;;;10250149;28;93904;-68
2023/04/25 08:29:24;;;;;;;;;;;16.90;63.60;;;;;;10251009;28;93205;-68
2023/04/25 08:34:26;;;;;;;;;;;16.90;63.60;;;;;;10251131;28;93503;-66
2023/04/25 08:39:28;;;;;;;;;;;16.90;63.50;;;;;;10232970;28;93499;-65
2023/04/25 08:44:30;;;;;;;;;;;16.90;63.50;;;;;;10249812;28;94433;-66
2023/04/25 08:49:33;;;;;;;;;;;16.90;63.50;;;;;;10229459;28;95838;-66
2023/04/25 08:54:35;;;;;;;;;;;16.90;63.40;;;;;;10249015;28;94380;-66
2023/04/25 08:59:57;;;;;;;;;;;16.90;63.30;;;;;;10249430;28;93501;-66
2023/04/25 09:04:59;;;;;;;;;;;17.00;63.10;;;;;;10231536;28;93490;-67
2023/04/25 09:10:03;;;;;;;;;;;17.00;62.80;;;;;;10247721;28;93617;-67
2023/04/25 09:15:06;;;;;;;;;;;17.00;62.70;;;;;;10248314;28;94392;-67
2023/04/25 09:20:09;;;;;;;;;;;17.00;62.60;;;;;;10248687;28;94434;-67
2023/04/25 09:25:12;;;;;;;;;;;17.10;62.60;;;;;;10248984;28;92741;-67
2023/04/25 09:30:15;;;;;;;;;;;17.10;62.30;;;;;;10229644;28;93988;-67
2023/04/25 09:35:24;;;;;;;;;;;17.10;62.10;;;;;;10247247;28;93591;-68
2023/04/25 09:40:26;;;;;;;;;;;17.10;61.80;;;;;;10246008;28;96777;-67
2023/04/25 09:45:29;;;;;;;;;;;17.20;61.70;;;;;;10248180;28;95667;-68
2023/04/25 09:50:31;;;;;;;;;;;17.20;61.30;;;;;;10247952;28;94037;-67
2023/04/25 09:55:34;;;;;;;;;;;17.30;61.20;;;;;;10247398;28;92563;-67
2023/04/25 10:00:37;;;;;;;;;;;17.30;61.00;;;;;;10247201;28;94491;-67
2023/04/25 10:05:40;;;;;;;;;;;17.40;61.10;;;;;;10229972;28;93451;-67
2023/04/25 10:10:42;;;;;;;;;;;17.40;61.00;;;;;;10237406;28;93334;-67
2023/04/25 10:15:44;;;;;;;;;;;17.50;60.60;;;;;;10255088;28;92228;-67
2023/04/25 10:20:46;;;;;;;;;;;17.60;60.70;;;;;;10253896;28;93712;-68
2023/04/25 10:25:48;;;;;;;;;;;17.60;60.50;;;;;;10236011;28;93646;-67
2023/04/25 10:31:00;;;;;;;;;;;17.60;60.40;;;;;;10251247;28;95702;-67
2023/04/25 10:36:09;;;;;;;;;;;17.60;60.50;;;;;;10253368;28;92821;-67
2023/04/25 10:41:11;;;;;;;;;;;17.50;60.20;;;;;;10253967;28;92907;-67
2023/04/25 10:46:16;;;;;;;;;;;17.40;60.20;;;;;;10253447;28;92910;-67
2023/04/25 10:51:19;;;;;;;;;;;17.40;60.30;;;;;;10253607;28;93558;-67
2023/04/25 10:56:22;;;;;;;;;;;17.40;60.40;;;;;;10254006;28;93219;-67
2023/04/25 11:01:25;;;;;;;;;;;17.40;60.30;;;;;;10236813;28;94489;-67
2023/04/25 11:06:32;;;;;;;;;;;17.40;60.50;;;;;;10254607;28;113337;-68
2023/04/25 11:11:36;;;;;;;;;;;17.50;60.40;;;;;;10236626;28;93745;-68
2023/04/25 11:16:37;;;;;;;;;;;17.40;60.20;;;;;;10253658;28;92871;-68
2023/04/25 11:21:39;;;;;;;;;;;17.40;60.20;;;;;;10251308;28;95130;-68
2023/04/25 11:26:42;;;;;;;;;;;17.40;59.80;;;;;;10252591;28;93256;-68
2023/04/25 11:31:45;;;;;;;;;;;17.40;59.80;;;;;;10234051;28;93345;-68
2023/04/25 11:36:47;;;;;;;;;;;17.40;59.70;;;;;;10233654;28;94448;-68
2023/04/25 11:41:50;;;;;;;;;;;17.40;59.80;;;;;;10251497;28;93434;-68
2023/04/25 11:46:51;;;;;;;;;;;17.40;59.80;;;;;;10234090;28;94288;-69
2023/04/25 11:51:53;;;;;;;;;;;17.40;59.60;;;;;;10210463;28;94553;-68
2023/04/25 11:56:56;;;;;;;;;;;17.40;59.90;;;;;;10209851;28;93722;-68
2023/04/25 12:01:58;;;;;;;;;;;17.40;60.00;;;;;;10211130;28;93463;-67
2023/04/25 12:07:01;;;;;;;;;;;17.40;59.80;;;;;;10210158;28;93405;-68
2023/04/25 12:12:03;;;;;;;;;;;17.40;59.80;;;;;;10207263;28;96567;-68
2023/04/25 12:17:07;;;;;;;;;;;17.30;60.20;;;;;;10210083;28;93395;-68
2023/04/25 12:22:23;;;;;;;;;;;17.40;60.30;;;;;;10208351;28;93545;-68
2023/04/25 12:27:25;;;;;;;;;;;17.40;60.30;;;;;;10210437;28;94631;-68
2023/04/25 12:32:27;;;;;;;;;;;17.40;60.10;;;;;;10209217;28;94493;-68
2023/04/25 12:37:30;;;;;;;;;;;17.40;60.20;;;;;;10209950;28;94714;-68
2023/04/25 12:42:32;;;;;;;;;;;17.40;60.00;;;;;;10209491;28;93867;-68
2023/04/25 12:47:35;;;;;;;;;;;17.30;60.00;;;;;;10214188;28;92957;-67
2023/04/25 12:52:36;;;;;;;;;;;17.30;60.10;;;;;;10250174;28;94671;-67
2023/04/25 12:57:38;;;;;;;;;;;17.40;60.20;;;;;;10249152;28;94476;-67
2023/04/25 13:02:40;;;;;;;;;;;17.40;60.10;;;;;;10247744;28;96951;-67
2023/04/25 13:07:42;;;;;;;;;;;17.40;60.10;;;;;;10248744;28;94147;-67
2023/04/25 13:12:45;;;;;;;;;;;17.40;59.90;;;;;;10231712;28;93444;-68
2023/04/25 13:17:47;;;;;;;;;;;17.40;60.00;;;;;;10230932;28;94366;-68
2023/04/25 13:22:49;;;;;;;;;;;17.40;60.00;;;;;;10248328;28;94048;-68
2023/04/25 13:27:51;;;;;;;;;;;17.40;60.00;;;;;;10247826;28;93568;-68
2023/04/25 13:32:53;;;;;;;;;;;17.40;60.00;;;;;;10247506;28;94431;-69
2023/04/25 13:37:56;;;;;;;;;;;17.40;59.90;;;;;;10248893;28;92659;-68
2023/04/25 13:42:57;;;;;;;;;;;17.40;59.80;;;;;;10247312;28;94533;-68
2023/04/25 13:48:00;;;;;;;;;;;17.40;59.70;;;;;;10247780;28;93537;-69
2023/04/25 13:53:02;;;;;;;;;;;17.40;59.70;;;;;;10244573;28;96199;-68
2023/04/25 13:58:07;;;;;;;;;;;17.40;59.70;;;;;;10247519;28;93475;-68
2023/04/25 14:03:09;;;;;;;;;;;17.40;59.80;;;;;;10247115;28;93482;-69
2023/04/25 14:08:11;;;;;;;;;;;17.40;59.80;;;;;;10246561;28;94422;-68
2023/04/25 14:13:13;;;;;;;;;;;17.30;59.70;;;;;;10246425;28;94633;-68
2023/04/25 14:18:15;;;;;;;;;;;17.30;59.70;;;;;;10229272;28;93657;-68
2023/04/25 14:23:17;;;;;;;;;;;17.30;59.60;;;;;;10246913;28;93587;-68
2023/04/25 14:28:19;;;;;;;;;;;17.30;59.60;;;;;;10246735;28;92644;-68
2023/04/25 14:33:21;;;;;;;;;;;17.30;59.60;;;;;;10228588;28;93144;-68
2023/04/25 14:38:25;;;;;;;;;;;17.30;59.70;;;;;;10245815;28;94622;-68
2023/04/25 14:43:27;;;;;;;;;;;17.30;59.60;;;;;;10244568;28;97084;-68
2023/04/25 14:48:28;;;;;;;;;;;17.30;59.40;;;;;;10245285;28;94767;-68
2023/04/25 14:53:31;;;;;;;;;;;17.30;59.40;;;;;;10249906;28;93479;-68
2023/04/25 14:58:33;;;;;;;;;;;17.30;59.50;;;;;;10252978;28;94870;-68
2023/04/25 15:03:35;;;;;;;;;;;17.30;59.50;;;;;;10252022;28;93692;-68
2023/04/25 15:08:37;;;;;;;;;;;17.20;59.50;;;;;;10252887;28;94182;-68
2023/04/25 15:13:40;;;;;;;;;;;17.20;59.50;;;;;;10252593;28;94509;-68
2023/04/25 15:18:41;;;;;;;;;;;17.20;59.50;;;;;;10253120;28;92945;-68
2023/04/25 15:23:43;;;;;;;;;;;17.20;59.50;;;;;;10251775;28;93519;-68
2023/04/25 15:28:45;;;;;;;;;;;17.20;59.50;;;;;;10234172;28;94496;-68
2023/04/25 15:33:46;;;;;;;;;;;17.20;59.40;;;;;;10231386;28;95669;-69
2023/04/25 15:38:48;;;;;;;;;;;17.10;59.40;;;;;;10233773;28;93393;-68
2023/04/25 15:43:51;;;;;;;;;;;17.10;59.40;;;;;;10251102;28;92538;-68
2023/04/25 15:48:55;;;;;;;;;;;17.10;59.40;;;;;;10250974;28;93225;-68
2023/04/25 15:53:56;;;;;;;;;;;17.10;59.50;;;;;;10250180;28;93477;-68
2023/04/25 15:58:58;;;;;;;;;;;17.10;59.50;;;;;;10251222;28;94795;-68
2023/04/25 16:04:00;;;;;;;;;;;17.10;59.50;;;;;;10249970;28;94618;-68
2023/04/25 16:09:03;;;;;;;;;;;17.10;59.70;;;;;;10252644;28;92634;-68
2023/04/25 16:14:05;;;;;;;;;;;17.20;59.80;;;;;;10250421;28;93475;-68
2023/04/25 16:19:06;;;;;;;;;;;17.20;59.70;;;;;;10250767;28;93473;-69
2023/04/25 16:24:09;;;;;;;;;;;17.30;59.70;;;;;;10247628;28;96244;-69
2023/04/25 16:29:11;;;;;;;;;;;17.30;59.60;;;;;;10250883;28;93251;-68
2023/04/25 16:34:14;;;;;;;;;;;17.40;59.40;;;;;;10248487;28;93325;-68
2023/04/25 16:39:16;;;;;;;;;;;17.40;59.40;;;;;;10249299;28;94401;-68
2023/04/25 16:44:18;;;;;;;;;;;17.50;59.40;;;;;;10250050;28;94644;-68
2023/04/25 16:49:20;;;;;;;;;;;17.50;59.40;;;;;;10248952;28;95781;-68
2023/04/25 16:54:24;;;;;;;;;;;17.50;59.30;;;;;;10249765;28;94118;-68
2023/04/25 16:59:26;;;;;;;;;;;17.50;59.30;;;;;;10250108;28;93884;-68
2023/04/25 17:04:27;;;;;;;;;;;17.50;59.30;;;;;;10248938;28;94251;-65
2023/04/25 17:09:30;;;;;;;;;;;17.60;59.40;;;;;;10248695;28;93472;-66
2023/04/25 17:14:34;;;;;;;;;;;17.60;59.50;;;;;;10228846;28;96132;-63
2023/04/25 17:19:36;;;;;;;;;;;17.70;62.50;;;;;;10250460;28;94513;-67
2023/04/25 17:24:39;;;;;;;;;;;17.90;63.60;;;;;;10288268;28;93367;-66
2023/04/25 17:29:41;;;;;;;;;;;18.10;62.90;;;;;;10288806;28;94467;-66
2023/04/25 17:34:44;;;;;;;;;;;18.20;60.40;;;;;;10288329;28;94533;-67
2023/04/25 17:39:47;;;;;;;;;;;18.10;60.10;;;;;;10288246;28;93757;-67
2023/04/25 17:44:48;;;;;;;;;;;18.10;59.80;;;;;;10288167;28;94444;-67
2023/04/25 17:49:50;;;;;;;;;;;18.00;59.60;;;;;;10269707;28;92844;-67
2023/04/25 17:54:52;;;;;;;;;;;18.00;59.60;;;;;;10270282;28;93572;-67
2023/04/25 17:59:56;;;;;;;;;;;17.90;59.60;;;;;;10286736;28;92581;-67
2023/04/25 18:04:58;;;;;;;;;;;17.80;59.50;;;;;;10285026;28;95656;-67
2023/04/25 18:10:00;;;;;;;;;;;17.80;59.60;;;;;;10286917;28;94672;-67
2023/04/25 18:15:05;;;;;;;;;;;17.70;59.60;;;;;;10288048;28;93674;-67
2023/04/25 18:20:13;;;;;;;;;;;17.70;59.60;;;;;;10286830;28;93764;-67
2023/04/25 18:25:15;;;;;;;;;;;17.60;59.60;;;;;;10287241;28;94718;-67
2023/04/25 18:30:17;;;;;;;;;;;17.60;59.60;;;;;;10293647;28;93529;-67
2023/04/25 18:35:20;;;;;;;;;;;17.60;59.40;;;;;;10293917;28;94874;-67
2023/04/25 18:40:21;;;;;;;;;;;17.60;59.50;;;;;;10276567;28;92652;-67
2023/04/25 18:45:24;;;;;;;;;;;17.60;59.40;;;;;;10293657;28;94698;-67
2023/04/25 18:50:25;;;;;;;;;;;17.60;59.30;;;;;;10292984;28;94418;-67
2023/04/25 18:55:28;;;;;;;;;;;17.60;59.30;;;;;;10292208;28;97026;-67
2023/04/25 19:00:30;;;;;;;;;;;17.60;59.40;;;;;;10293929;28;94470;-67
2023/04/25 19:05:32;;;;;;;;;;;17.60;59.20;;;;;;10293346;28;93355;-67
2023/04/25 19:10:34;;;;;;;;;;;17.60;59.00;;;;;;10274615;28;94456;-67
2023/04/25 19:15:36;;;;;;;;;;;17.60;59.10;;;;;;10291964;28;94446;-67
2023/04/25 19:20:38;;;;;;;;;;;17.60;59.20;;;;;;10292054;28;93599;-67
2023/04/25 19:25:40;;;;;;;;;;;17.60;59.20;;;;;;10291774;28;94208;-67
2023/04/25 19:30:42;;;;;;;;;;;17.60;59.20;;;;;;10292501;28;95241;-68
2023/04/25 19:35:45;;;;;;;;;;;17.60;59.10;;;;;;10274232;28;93395;-68
2023/04/25 19:40:47;;;;;;;;;;;17.50;59.00;;;;;;10290936;28;93505;-67
2023/04/25 19:45:49;;;;;;;;;;;17.50;59.10;;;;;;10288598;28;96975;-67
2023/04/25 19:50:51;;;;;;;;;;;17.50;59.10;;;;;;10272504;28;93490;-67
2023/04/25 19:55:53;;;;;;;;;;;17.50;59.10;;;;;;10290577;28;93562;-67
2023/04/25 20:00:56;;;;;;;;;;;17.50;59.00;;;;;;10272909;28;92931;-67
2023/04/25 20:05:58;;;;;;;;;;;17.50;59.00;;;;;;10291261;28;93504;-67
2023/04/25 20:11:00;;;;;;;;;;;17.50;59.10;;;;;;10272339;28;93123;-67
2023/04/25 20:16:02;;;;;;;;;;;17.50;59.00;;;;;;10290195;28;93671;-67
2023/04/25 20:21:04;;;;;;;;;;;17.50;58.90;;;;;;10290954;28;93535;-67
2023/04/25 20:26:06;;;;;;;;;;;17.50;59.00;;;;;;10290168;28;94223;-67
2023/04/25 20:31:09;;;;;;;;;;;17.50;59.10;;;;;;10288829;28;94304;-68
2023/04/25 20:36:11;;;;;;;;;;;17.40;59.00;;;;;;10286046;28;96930;-69
2023/04/25 20:41:12;;;;;;;;;;;17.40;59.00;;;;;;10290226;28;94999;-69
2023/04/25 20:46:15;;;;;;;;;;;17.40;58.90;;;;;;10287393;28;93497;-69
2023/04/25 20:51:16;;;;;;;;;;;17.40;59.00;;;;;;10287945;28;93771;-69
2023/04/25 20:56:19;;;;;;;;;;;17.30;58.90;;;;;;10271932;28;93511;-70
2023/04/25 21:01:21;;;;;;;;;;;17.30;58.80;;;;;;10288499;28;93993;-69
2023/04/25 21:06:23;;;;;;;;;;;17.30;58.80;;;;;;10288405;28;93669;-67
2023/04/25 21:11:24;;;;;;;;;;;17.20;58.70;;;;;;10289120;28;93052;-67
2023/04/25 21:16:26;;;;;;;;;;;17.20;58.70;;;;;;10288500;28;94847;-67
2023/04/25 21:21:28;;;;;;;;;;;17.20;58.70;;;;;;10288515;28;94697;-69
2023/04/25 21:26:30;;;;;;;;;;;17.20;58.90;;;;;;10285175;28;95963;-70
2023/04/25 21:31:32;;;;;;;;;;;17.20;58.80;;;;;;10288473;28;93181;-69
2023/04/25 21:36:34;;;;;;;;;;;17.10;58.70;;;;;;10288438;28;93278;-68
2023/04/25 21:41:36;;;;;;;;;;;17.10;58.60;;;;;;10289922;28;94452;-69
2023/04/25 21:46:38;;;;;;;;;;;17.10;58.60;;;;;;10288340;28;94828;-69
2023/04/25 21:51:40;;;;;;;;;;;17.10;58.70;;;;;;10287876;28;94043;-69
2023/04/25 21:56:42;;;;;;;;;;;17.10;58.60;;;;;;10288174;28;93485;-67
2023/04/25 22:01:44;;;;;;;;;;;17.00;58.60;;;;;;10286834;28;93619;-68
2023/04/25 22:06:46;;;;;;;;;;;17.00;58.60;;;;;;10287829;28;94369;-68
2023/04/25 22:11:51;;;;;;;;;;;17.00;58.60;;;;;;10287019;28;93542;-68
2023/04/25 22:16:54;;;;;;;;;;;17.00;58.50;;;;;;10283999;28;95348;-68
2023/04/25 22:21:57;;;;;;;;;;;17.00;58.40;;;;;;10287449;28;94474;-68
2023/04/25 22:26:59;;;;;;;;;;;16.90;58.50;;;;;;10286568;28;93510;-68
2023/04/25 22:32:01;;;;;;;;;;;16.90;58.40;;;;;;10287847;28;94672;-68
2023/04/25 22:37:03;;;;;;;;;;;16.90;58.40;;;;;;10270295;28;94587;-68
2023/04/25 22:42:05;;;;;;;;;;;16.90;58.40;;;;;;10287158;28;92583;-68
2023/04/25 22:47:07;;;;;;;;;;;16.90;58.40;;;;;;10287481;28;93286;-69
2023/04/25 22:52:09;;;;;;;;;;;16.80;58.50;;;;;;10289228;28;91773;-68
2023/04/25 22:57:11;;;;;;;;;;;16.90;58.40;;;;;;10288117;28;93317;-68
2023/04/25 23:02:13;;;;;;;;;;;16.80;58.40;;;;;;10287263;28;93984;-68
2023/04/25 23:07:15;;;;;;;;;;;16.80;58.50;;;;;;10284802;28;95785;-68
2023/04/25 23:12:18;;;;;;;;;;;16.80;59.40;;;;;;10269311;28;94494;-68
2023/04/25 23:17:19;;;;;;;;;;;16.80;58.50;;;;;;10293493;28;93449;-68
2023/04/25 23:22:21;;;;;;;;;;;16.80;58.40;;;;;;10292126;28;93455;-68
2023/04/25 23:27:23;;;;;;;;;;;16.80;58.30;;;;;;10293085;28;94715;-69
2023/04/25 23:32:25;;;;;;;;;;;16.80;58.30;;;;;;10291756;28;93423;-68
2023/04/25 23:37:26;;;;;;;;;;;16.80;58.30;;;;;;10274953;28;93509;-68
2023/04/25 23:42:28;;;;;;;;;;;16.80;58.30;;;;;;10292977;28;93821;-69
2023/04/25 23:47:30;;;;;;;;;;;16.80;58.20;;;;;;10291024;28;93257;-69
2023/04/25 23:52:32;;;;;;;;;;;16.80;58.20;;;;;;10274441;28;95686;-68
2023/04/25 23:57:34;;;;;;;;;;;16.80;58.20;;;;;;10271673;28;97080;-68
